This is the latest recevied weather packets stored in our database for station/object EA4BHK-10. If no packets are shown the sender has not sent any weather packets the latest 10 day(s).
| Time | Temp. | Humidity | Pressure | Rain* | Wind** | Luminosity | Snow |
|---|---|---|---|---|---|---|---|
| 1777742326 | 16.11° C | 59% | 1016.6 hPa | - | - | - | - |
| 1777741422 | 16.67° C | 56% | 1016.5 hPa | - | - | - | - |
| 1777740522 | 16.67° C | 55% | 1016.3 hPa | - | - | - | - |
| 1777739622 | 16.67° C | 54% | 1016.3 hPa | - | - | - | - |
| 1777738722 | 17.22° C | 53% | 1016.3 hPa | - | - | - | - |
| 1777737822 | 17.22° C | 52% | 1016.3 hPa | - | - | - | - |
| 1777736922 | 17.22° C | 52% | 1016.3 hPa | - | - | - | - |
| 1777736022 | 17.22° C | 53% | 1016.5 hPa | - | - | - | - |
| 1777735122 | 17.22° C | 52% | 1016.7 hPa | - | - | - | - |
| 1777734222 | 17.78° C | 53% | 1016.8 hPa | - | - | - | - |
| 1777733322 | 17.22° C | 53% | 1017.2 hPa | - | - | - | - |
| 1777732422 | 17.22° C | 52% | 1017.4 hPa | - | - | - | - |
| 1777731522 | 17.22° C | 53% | 1017.7 hPa | - | - | - | - |
| 1777730622 | 17.22° C | 53% | 1017.7 hPa | - | - | - | - |
| 1777729721 | 16.67° C | 54% | 1018.3 hPa | - | - | - | - |
| 1777728821 | 16.67° C | 54% | 1018.7 hPa | - | - | - | - |
| 1777727928 | 16.11° C | 54% | 1019.1 hPa | - | - | - | - |
| 1777727021 | 16.11° C | 56% | 1019.3 hPa | - | - | - | - |
| 1777726122 | 16.11° C | 55% | 1019.4 hPa | - | - | - | - |
| 1777725221 | 16.11° C | 55% | 1019.4 hPa | - | - | - | - |
| 1777724321 | 15.56° C | 56% | 1019.9 hPa | - | - | - | - |
| 1777723421 | 15.56° C | 57% | 1020.3 hPa | - | - | - | - |
| 1777722528 | 16.11° C | 55% | 1019.8 hPa | - | - | - | - |
| 1777721621 | 16.11° C | 56% | 1019.8 hPa | - | - | - | - |
| 1777720722 | 15.56° C | 58% | 1020.1 hPa | - | - | - | - |
* Rain since midnight (hover to see other rain measurements)
** Current wind speed in m/s (hover to see current wind gust speed)